createdAt,value
2022-08-16T00:01:41.918Z,16.58
2022-08-16T00:04:09.617Z,17.35
2022-08-16T00:06:39.223Z,14.77
2022-08-16T00:09:07.674Z,13.57
2022-08-16T00:11:39.772Z,13.80
2022-08-16T00:14:11.795Z,14.05
2022-08-16T00:17:00.957Z,13.20
2022-08-16T00:19:41.975Z,12.05
2022-08-16T00:22:13.518Z,18.00
2022-08-16T00:27:23.898Z,21.05
2022-08-16T00:30:08.616Z,12.43
2022-08-16T00:32:38.695Z,15.52
2022-08-16T00:35:15.498Z,12.68
2022-08-16T00:37:57.032Z,13.82
2022-08-16T00:40:43.612Z,14.98
2022-08-16T00:43:43.195Z,14.50
2022-08-16T00:46:33.586Z,14.65
2022-08-16T00:49:02.517Z,17.38
2022-08-16T00:51:30.166Z,26.75
2022-08-16T00:53:58.010Z,16.10
2022-08-16T00:56:58.553Z,17.77
2022-08-16T00:59:23.769Z,13.73
2022-08-16T01:01:52.368Z,17.92
2022-08-16T01:04:28.939Z,14.68
2022-08-16T01:07:01.375Z,19.20
2022-08-16T01:09:37.385Z,21.05
2022-08-16T01:12:08.526Z,16.02
2022-08-16T01:14:51.137Z,13.43
2022-08-16T01:17:24.366Z,19.52
2022-08-16T01:19:57.174Z,13.80
2022-08-16T01:22:52.426Z,13.18
2022-08-16T01:25:34.171Z,14.77
2022-08-16T01:28:04.700Z,15.48
2022-08-16T01:30:39.763Z,21.75
2022-08-16T01:33:19.355Z,17.10
2022-08-16T01:36:00.799Z,18.23
2022-08-16T01:38:57.118Z,21.70
2022-08-16T01:41:31.281Z,15.68
2022-08-16T01:44:01.199Z,15.98
2022-08-16T01:46:39.327Z,17.15
2022-08-16T01:50:41.098Z,18.02
2022-08-16T01:52:33.461Z,17.48
2022-08-16T01:55:01.042Z,27.20
2022-08-16T01:57:31.745Z,17.10
2022-08-16T02:00:00.270Z,15.20
2022-08-16T02:02:28.984Z,17.50
2022-08-16T02:05:00.434Z,15.45
2022-08-16T02:07:27.814Z,16.08
2022-08-16T02:09:59.679Z,18.58
2022-08-16T02:12:50.155Z,20.13
2022-08-16T02:15:25.299Z,19.25
2022-08-16T02:17:54.718Z,16.70
2022-08-16T02:20:26.083Z,21.27
2022-08-16T02:22:56.756Z,18.60
2022-08-16T02:25:25.077Z,18.52
2022-08-16T02:28:12.227Z,15.07
2022-08-16T02:30:50.684Z,14.82
2022-08-16T02:33:19.151Z,24.83
2022-08-16T02:35:53.736Z,16.42
2022-08-16T02:38:22.651Z,22.05
2022-08-16T02:40:49.934Z,20.95
2022-08-16T02:43:17.410Z,16.23
2022-08-16T02:45:44.739Z,16.83
2022-08-16T02:48:29.629Z,19.65
2022-08-16T02:51:06.139Z,17.65
2022-08-16T02:53:40.647Z,21.42
2022-08-16T02:56:12.324Z,22.00
2022-08-16T02:58:44.052Z,16.42
2022-08-16T03:01:23.998Z,14.88
2022-08-16T03:04:30.092Z,21.00
2022-08-16T03:06:43.830Z,16.70
2022-08-16T03:09:14.766Z,19.23
2022-08-16T03:11:42.695Z,20.52
2022-08-16T03:14:11.559Z,20.20
2022-08-16T03:16:42.085Z,15.25
2022-08-16T03:19:22.287Z,15.85
2022-08-16T03:21:51.902Z,18.00
2022-08-16T03:24:28.793Z,17.33
2022-08-16T03:27:02.835Z,18.60
2022-08-16T03:29:32.998Z,26.45
2022-08-16T03:32:01.923Z,24.73
2022-08-16T03:34:31.052Z,16.77
2022-08-16T03:36:58.996Z,19.30
2022-08-16T03:39:27.123Z,23.80
2022-08-16T03:42:00.018Z,20.33
2022-08-16T03:44:44.240Z,18.67
2022-08-16T03:47:18.502Z,24.52
2022-08-16T03:49:51.581Z,22.95
2022-08-16T03:52:23.504Z,20.60
2022-08-16T03:54:53.178Z,17.33
2022-08-16T03:57:21.917Z,21.80
2022-08-16T03:59:51.012Z,19.50
2022-08-16T04:02:22.273Z,22.63
2022-08-16T04:04:58.288Z,25.42
2022-08-16T04:07:26.219Z,27.23
2022-08-16T04:09:53.571Z,20.90
2022-08-16T04:12:53.504Z,20.67
2022-08-16T04:15:10.971Z,23.80
2022-08-16T04:17:40.688Z,24.70
2022-08-16T04:20:23.863Z,23.42
2022-08-16T04:22:57.883Z,31.10
2022-08-16T04:25:26.404Z,28.48
2022-08-16T04:27:56.053Z,26.92
2022-08-16T04:30:32.198Z,24.67
2022-08-16T04:33:04.523Z,26.90
2022-08-16T04:35:34.244Z,25.05
2022-08-16T04:38:10.861Z,27.60
2022-08-16T04:40:48.480Z,27.05
2022-08-16T04:43:18.957Z,25.77
2022-08-16T04:45:47.596Z,38.25
2022-08-16T04:48:32.545Z,28.75
2022-08-16T04:51:01.534Z,28.95
2022-08-16T04:53:41.368Z,23.25
2022-08-16T04:56:11.581Z,28.65
2022-08-16T04:58:45.639Z,26.67
2022-08-16T05:01:13.934Z,26.30
2022-08-16T05:03:59.984Z,29.55
2022-08-16T05:06:42.436Z,27.13
2022-08-16T05:09:12.917Z,30.17
2022-08-16T05:11:40.409Z,32.83
2022-08-16T05:14:07.995Z,24.67
2022-08-16T05:16:36.289Z,26.63
2022-08-16T05:19:05.309Z,27.17
2022-08-16T05:21:39.623Z,27.15
2022-08-16T05:24:09.200Z,23.90
2022-08-16T05:26:43.229Z,28.38
2022-08-16T05:29:14.718Z,26.25
2022-08-16T05:31:48.101Z,30.58
2022-08-16T05:34:22.520Z,30.90
2022-08-16T05:36:51.192Z,26.02
2022-08-16T05:39:20.486Z,28.77
2022-08-16T05:41:49.121Z,28.95
2022-08-16T05:44:25.041Z,33.65
2022-08-16T05:47:00.176Z,28.02
2022-08-16T05:52:11.146Z,32.30
2022-08-16T05:54:47.135Z,28.17
2022-08-16T05:57:17.599Z,30.80
2022-08-16T05:59:50.332Z,28.98
2022-08-16T06:02:33.369Z,31.77
2022-08-16T06:05:02.173Z,26.73
2022-08-16T06:07:29.636Z,34.05
2022-08-16T06:10:00.446Z,33.42
2022-08-16T06:12:29.868Z,25.20
2022-08-16T06:15:09.614Z,30.48
2022-08-16T06:17:42.554Z,28.17
2022-08-16T06:20:23.111Z,27.05
2022-08-16T06:22:59.031Z,35.28
2022-08-16T06:25:35.830Z,25.20
2022-08-16T06:28:08.752Z,29.13
2022-08-16T06:30:43.965Z,29.48
2022-08-16T06:33:22.293Z,27.58
2022-08-16T06:35:55.166Z,31.50
2022-08-16T06:38:33.587Z,30.95
2022-08-16T06:41:06.962Z,27.65
2022-08-16T06:43:41.988Z,33.03
2022-08-16T06:46:21.753Z,31.13
2022-08-16T06:48:51.777Z,28.15
2022-08-16T06:51:19.284Z,30.27
2022-08-16T06:53:52.718Z,27.88
2022-08-16T06:56:23.621Z,32.70
2022-08-16T06:58:52.808Z,29.80
2022-08-16T07:01:42.928Z,33.55
2022-08-16T07:04:10.281Z,39.35
2022-08-16T07:06:43.263Z,33.80
2022-08-16T07:09:15.881Z,34.55
2022-08-16T07:11:45.533Z,31.13
2022-08-16T07:14:25.170Z,29.17
2022-08-16T07:16:57.737Z,34.38
2022-08-16T07:19:33.676Z,30.77
2022-08-16T07:22:36.692Z,28.90
2022-08-16T07:25:01.582Z,30.05
2022-08-16T07:27:29.129Z,27.85
2022-08-16T07:30:00.833Z,29.23
2022-08-16T07:32:29.639Z,31.92
2022-08-16T07:34:58.902Z,32.90
2022-08-16T07:37:26.461Z,28.90
2022-08-16T07:39:54.639Z,33.58
2022-08-16T07:42:28.342Z,26.98
2022-08-16T07:45:02.458Z,27.35
2022-08-16T07:47:31.540Z,29.83
2022-08-16T07:50:00.250Z,35.40
2022-08-16T07:52:33.364Z,25.27
2022-08-16T07:55:00.521Z,25.92
2022-08-16T07:57:28.103Z,27.48
2022-08-16T07:59:57.233Z,25.70
2022-08-16T08:02:27.321Z,23.88
2022-08-16T08:04:55.942Z,30.77
2022-08-16T08:07:27.542Z,20.73
2022-08-16T08:09:57.448Z,20.27
2022-08-16T08:12:32.043Z,15.38
2022-08-16T08:15:12.474Z,15.85
2022-08-16T08:17:43.291Z,19.83
2022-08-16T08:20:23.867Z,15.75
2022-08-16T08:23:00.633Z,16.88
2022-08-16T08:25:54.403Z,16.35
2022-08-16T08:28:17.947Z,15.93
2022-08-16T08:30:49.264Z,16.00
2022-08-16T08:33:19.762Z,16.17
2022-08-16T08:35:46.884Z,12.00
2022-08-16T08:38:17.191Z,14.48
2022-08-16T08:41:08.934Z,10.35
2022-08-16T08:43:41.729Z,12.20
2022-08-16T08:46:18.384Z,9.48
2022-08-16T08:48:58.363Z,12.30
2022-08-16T08:51:35.555Z,9.55
2022-08-16T08:54:06.897Z,8.90
2022-08-16T08:56:37.520Z,10.65
2022-08-16T08:59:13.032Z,8.27
2022-08-16T09:01:42.894Z,12.48
2022-08-16T09:04:24.383Z,9.48
2022-08-16T09:06:53.954Z,8.43
2022-08-16T09:09:23.955Z,10.13
2022-08-16T09:12:04.140Z,13.60
2022-08-16T09:14:36.071Z,12.55
2022-08-16T09:17:14.193Z,12.40
2022-08-16T09:19:55.645Z,12.18
2022-08-16T09:22:26.264Z,9.88
2022-08-16T09:25:10.056Z,18.20
2022-08-16T09:27:56.479Z,12.85
2022-08-16T09:30:33.483Z,15.20
2022-08-16T09:33:10.781Z,11.23
2022-08-16T09:35:39.334Z,8.27
2022-08-16T09:38:31.480Z,6.28
2022-08-16T09:41:00.267Z,6.22
2022-08-16T09:43:59.405Z,11.52
2022-08-16T09:46:45.268Z,8.75
2022-08-16T09:49:03.470Z,10.13
2022-08-16T09:51:36.882Z,8.88
2022-08-16T09:54:05.915Z,7.43
2022-08-16T09:56:35.571Z,7.88
2022-08-16T09:59:08.182Z,7.93
2022-08-16T10:01:45.892Z,5.50
2022-08-16T10:04:29.332Z,9.27
2022-08-16T10:09:44.725Z,7.88
2022-08-16T10:12:31.133Z,5.68
2022-08-16T10:14:58.479Z,10.77
2022-08-16T10:17:26.463Z,8.43
2022-08-16T10:19:56.199Z,13.40
2022-08-16T10:22:23.723Z,5.45
2022-08-16T10:24:55.661Z,6.13
2022-08-16T10:27:30.051Z,6.90
2022-08-16T10:30:25.575Z,5.72
2022-08-16T10:32:55.863Z,5.47
2022-08-16T10:35:24.026Z,11.10
2022-08-16T10:37:59.918Z,7.03
2022-08-16T10:40:29.337Z,4.90
2022-08-16T10:43:01.708Z,4.45
2022-08-16T10:45:36.375Z,4.55
2022-08-16T10:48:28.117Z,3.80
2022-08-16T10:50:59.027Z,5.38
2022-08-16T10:53:32.842Z,9.32
2022-08-16T10:56:55.511Z,6.93
2022-08-16T10:59:32.658Z,9.43
2022-08-16T11:02:21.765Z,4.22
2022-08-16T11:12:52.693Z,6.80
2022-08-16T11:15:20.933Z,9.27
2022-08-16T11:18:48.807Z,5.65
2022-08-16T11:20:42.053Z,4.97
2022-08-16T11:23:11.446Z,6.13
2022-08-16T11:31:13.845Z,4.47
2022-08-16T11:33:56.341Z,9.10
2022-08-16T11:36:27.554Z,7.78
2022-08-16T11:38:58.277Z,4.78
2022-08-16T11:41:29.511Z,5.18
2022-08-16T11:44:00.298Z,5.28
2022-08-16T11:46:44.691Z,5.13
2022-08-16T11:49:16.879Z,7.97
2022-08-16T11:51:45.707Z,3.55
2022-08-16T11:54:20.124Z,6.72
2022-08-16T11:56:52.680Z,5.07
2022-08-16T11:59:28.687Z,3.58
2022-08-16T12:02:30.729Z,7.03
2022-08-16T12:04:51.999Z,3.50
2022-08-16T12:07:23.509Z,4.78
2022-08-16T12:09:53.237Z,8.52
2022-08-16T12:12:23.435Z,8.73
2022-08-16T12:14:59.400Z,7.35
2022-08-16T12:17:31.930Z,5.90
2022-08-16T12:20:01.251Z,7.30
2022-08-16T12:22:36.586Z,3.65
2022-08-16T12:25:10.424Z,6.90
2022-08-16T12:27:39.453Z,10.18
2022-08-16T12:30:13.485Z,9.05
2022-08-16T12:32:56.436Z,7.82
2022-08-16T12:35:26.179Z,7.28
2022-08-16T12:37:57.419Z,5.10
2022-08-16T12:40:29.102Z,6.22
2022-08-16T12:43:00.726Z,4.15
2022-08-16T12:45:31.590Z,4.18
2022-08-16T12:48:34.716Z,5.75
2022-08-16T12:51:05.134Z,4.88
2022-08-16T12:53:41.859Z,5.55
2022-08-16T12:56:14.431Z,5.05
2022-08-16T12:58:49.161Z,5.28
2022-08-16T13:01:23.480Z,6.80
2022-08-16T13:04:11.479Z,9.52
2022-08-16T13:06:44.054Z,6.70
2022-08-16T13:09:26.820Z,4.63
2022-08-16T13:12:15.927Z,5.47
2022-08-16T13:14:45.116Z,6.38
2022-08-16T13:17:18.661Z,5.63
2022-08-16T13:22:37.652Z,9.15
2022-08-16T13:25:08.764Z,8.68
2022-08-16T13:28:15.230Z,5.40
2022-08-16T13:30:37.378Z,8.27
2022-08-16T13:33:13.291Z,8.52
2022-08-16T13:35:56.064Z,6.00
2022-08-16T13:38:26.443Z,5.10
2022-08-16T13:40:57.256Z,8.13
2022-08-16T13:43:27.425Z,7.13
2022-08-16T13:45:57.196Z,7.93
2022-08-16T13:48:37.093Z,6.25
2022-08-16T13:51:15.810Z,5.00
2022-08-16T13:53:54.971Z,5.50
2022-08-16T13:56:37.297Z,4.45
2022-08-16T13:59:19.994Z,7.35
2022-08-16T14:01:59.916Z,5.53
2022-08-16T14:04:32.181Z,6.93
2022-08-16T14:07:01.229Z,9.45
2022-08-16T14:09:30.416Z,7.47
2022-08-16T14:12:00.970Z,7.95
2022-08-16T14:14:33.118Z,6.65
2022-08-16T14:17:02.366Z,8.38
2022-08-16T14:19:30.112Z,5.57
2022-08-16T14:22:13.608Z,9.40
2022-08-16T14:24:45.205Z,5.45
2022-08-16T14:27:16.993Z,6.90
2022-08-16T14:29:45.459Z,6.25
2022-08-16T14:32:32.752Z,4.65
2022-08-16T14:35:04.950Z,4.53
2022-08-16T14:37:35.482Z,6.30
2022-08-16T14:40:03.616Z,5.25
2022-08-16T14:42:31.066Z,8.57
2022-08-16T14:45:00.387Z,8.07
2022-08-16T14:47:34.282Z,4.70
2022-08-16T14:50:02.943Z,3.67
2022-08-16T14:55:21.046Z,6.85
2022-08-16T14:57:48.295Z,5.47
2022-08-16T15:00:21.215Z,3.90
2022-08-16T15:03:01.159Z,4.50
2022-08-16T15:08:01.859Z,4.28
2022-08-16T15:10:32.005Z,3.65
2022-08-16T15:13:01.323Z,3.22
2022-08-16T15:15:30.587Z,4.10
2022-08-16T15:17:59.546Z,3.67
2022-08-16T15:20:32.703Z,4.82
2022-08-16T15:23:02.907Z,7.20
2022-08-16T15:25:43.579Z,3.45
2022-08-16T15:28:30.710Z,3.45
2022-08-16T15:31:03.619Z,3.30
2022-08-16T15:33:34.594Z,3.55
2022-08-16T15:36:06.407Z,3.40
2022-08-16T15:38:55.807Z,2.55
2022-08-16T15:41:42.788Z,4.68
2022-08-16T15:44:22.393Z,3.30
2022-08-16T15:46:55.126Z,3.30
2022-08-16T15:49:37.809Z,4.50
2022-08-16T15:52:20.967Z,8.48
2022-08-16T15:54:57.341Z,3.08
2022-08-16T15:57:26.809Z,2.83
2022-08-16T15:59:57.781Z,2.90
2022-08-16T16:02:41.523Z,3.00
2022-08-16T16:05:10.164Z,2.80
2022-08-16T16:07:39.393Z,2.92
2022-08-16T16:10:13.325Z,3.03
2022-08-16T16:12:50.990Z,2.88
2022-08-16T16:15:29.447Z,3.22
2022-08-16T16:17:57.451Z,3.33
2022-08-16T16:20:27.498Z,5.22
2022-08-16T16:23:05.087Z,6.72
2022-08-16T16:25:39.243Z,5.07
2022-08-16T16:28:12.582Z,4.10
2022-08-16T16:30:45.222Z,4.43
2022-08-16T16:33:20.531Z,3.40
2022-08-16T16:35:56.697Z,3.92
2022-08-16T16:38:29.085Z,3.63
2022-08-16T16:40:58.003Z,3.90
2022-08-16T16:43:31.910Z,7.68
2022-08-16T16:46:01.737Z,4.63
2022-08-16T16:48:34.989Z,4.65
2022-08-16T16:51:09.881Z,9.30
2022-08-16T16:53:41.444Z,5.97
2022-08-16T16:56:20.380Z,6.85
2022-08-16T16:59:01.107Z,5.22
2022-08-16T17:02:00.239Z,4.15
2022-08-16T17:04:39.528Z,3.40
2022-08-16T17:07:10.719Z,6.13
2022-08-16T17:09:40.750Z,8.68
2022-08-16T17:12:14.551Z,4.30
2022-08-16T17:14:54.191Z,6.38
2022-08-16T17:17:21.772Z,3.65
2022-08-16T17:19:49.240Z,3.60
2022-08-16T17:22:20.347Z,4.68
2022-08-16T17:24:50.818Z,4.57
2022-08-16T17:27:32.740Z,5.40
2022-08-16T17:30:29.625Z,3.63
2022-08-16T17:33:11.643Z,7.95
2022-08-16T17:39:23.820Z,3.00
2022-08-16T17:41:51.323Z,11.77
2022-08-16T17:44:19.493Z,3.95
2022-08-16T17:46:52.416Z,3.95
2022-08-16T17:49:21.248Z,4.97
2022-08-16T17:51:59.053Z,4.47
2022-08-16T17:54:34.121Z,5.60
2022-08-16T17:59:29.792Z,4.45
2022-08-16T18:01:58.028Z,4.90
2022-08-16T18:04:49.884Z,4.43
2022-08-16T18:07:15.565Z,4.72
2022-08-16T18:09:42.737Z,7.78
2022-08-16T18:12:45.055Z,4.15
2022-08-16T18:15:13.193Z,6.13
2022-08-16T18:17:40.837Z,5.50
2022-08-16T18:20:29.239Z,5.50
2022-08-16T18:23:14.935Z,5.65
2022-08-16T18:25:47.629Z,5.65
2022-08-16T18:28:17.460Z,4.40
2022-08-16T18:30:49.447Z,8.57
2022-08-16T18:33:20.295Z,4.53
2022-08-16T18:35:47.754Z,7.70
2022-08-16T18:38:15.238Z,7.03
2022-08-16T18:40:42.967Z,5.68
2022-08-16T18:43:17.520Z,6.28
2022-08-16T18:45:49.956Z,5.25
2022-08-16T18:48:18.041Z,6.03
2022-08-16T18:50:59.974Z,9.38
2022-08-16T18:53:34.701Z,5.68
2022-08-16T18:56:04.186Z,6.68
2022-08-16T18:58:34.163Z,8.90
2022-08-16T19:01:01.457Z,6.85
2022-08-16T19:03:31.782Z,8.63
2022-08-16T19:06:17.167Z,7.28
2022-08-16T19:08:45.538Z,9.00
2022-08-16T19:11:19.273Z,7.72
2022-08-16T19:13:46.894Z,5.95
2022-08-16T19:16:15.726Z,7.80
2022-08-16T19:18:43.169Z,8.48
2022-08-16T19:21:14.462Z,6.57
2022-08-16T19:23:44.078Z,7.03
2022-08-16T19:26:25.750Z,7.45
2022-08-16T19:28:58.546Z,6.13
2022-08-16T19:31:31.311Z,6.35
2022-08-16T19:33:59.125Z,8.48
2022-08-16T19:36:33.840Z,8.18
2022-08-16T19:39:07.241Z,8.10
2022-08-16T19:41:44.972Z,13.85
2022-08-16T19:44:13.221Z,12.43
2022-08-16T19:46:45.857Z,13.65
2022-08-16T19:49:16.177Z,12.98
2022-08-16T19:51:44.781Z,14.40
2022-08-16T19:54:11.949Z,8.50
2022-08-16T19:56:42.072Z,9.35
2022-08-16T19:59:19.471Z,7.97
2022-08-16T20:01:53.940Z,12.07
2022-08-16T20:04:22.900Z,8.65
2022-08-16T20:06:52.336Z,9.45
2022-08-16T20:09:19.969Z,11.30
2022-08-16T20:11:48.321Z,10.68
2022-08-16T20:14:24.214Z,14.93
2022-08-16T20:16:54.876Z,13.45
2022-08-16T20:19:22.257Z,8.05
2022-08-16T20:21:50.128Z,8.80
2022-08-16T20:24:33.675Z,9.13
2022-08-16T20:27:04.665Z,8.60
2022-08-16T20:29:32.097Z,7.95
2022-08-16T20:31:59.481Z,10.70
2022-08-16T20:34:26.680Z,9.95
2022-08-16T20:36:54.032Z,9.98
2022-08-16T20:39:23.581Z,10.48
2022-08-16T20:44:35.961Z,10.07
2022-08-16T20:47:03.179Z,8.43
2022-08-16T20:49:30.339Z,12.63
2022-08-16T20:51:59.993Z,9.65
2022-08-16T20:54:29.057Z,9.57
2022-08-16T20:56:56.591Z,8.10
2022-08-16T20:59:23.802Z,9.02
2022-08-16T21:01:51.373Z,10.15
2022-08-16T21:04:21.846Z,11.70
2022-08-16T21:06:53.439Z,10.18
2022-08-16T21:09:32.741Z,10.02
2022-08-16T21:12:03.789Z,10.43
2022-08-16T21:14:34.419Z,7.32
2022-08-16T21:17:06.693Z,8.63
2022-08-16T21:19:34.734Z,12.30
2022-08-16T21:22:13.475Z,13.75
2022-08-16T21:24:41.023Z,8.52
2022-08-16T21:27:08.875Z,11.80
2022-08-16T21:29:43.106Z,7.40
2022-08-16T21:32:13.967Z,7.47
2022-08-16T21:34:41.737Z,8.55
2022-08-16T21:37:08.991Z,8.60
2022-08-16T21:39:36.461Z,9.98
2022-08-16T21:42:15.554Z,9.13
2022-08-16T21:44:43.619Z,9.25
2022-08-16T21:47:10.903Z,13.98
2022-08-16T21:49:38.616Z,10.88
2022-08-16T21:52:07.801Z,8.13
2022-08-16T21:54:36.762Z,9.18
2022-08-16T21:57:08.643Z,10.82
2022-08-16T21:59:37.380Z,9.88
2022-08-16T22:02:04.753Z,9.88
2022-08-16T22:04:37.921Z,9.98
2022-08-16T22:07:06.423Z,9.55
2022-08-16T22:09:33.701Z,13.60
2022-08-16T22:12:01.045Z,12.27
2022-08-16T22:14:28.310Z,9.50
2022-08-16T22:16:55.961Z,13.90
2022-08-16T22:19:23.925Z,7.97
2022-08-16T22:21:51.549Z,9.55
2022-08-16T22:24:18.844Z,8.52
2022-08-16T22:26:46.184Z,10.30
2022-08-16T22:29:15.226Z,11.32
2022-08-16T22:31:44.106Z,8.98
2022-08-16T22:34:12.609Z,10.35
2022-08-16T22:36:40.174Z,12.25
2022-08-16T22:39:10.123Z,9.80
2022-08-16T22:41:39.227Z,8.95
2022-08-16T22:44:07.206Z,10.18
2022-08-16T22:46:36.878Z,11.38
2022-08-16T22:49:06.209Z,10.40
2022-08-16T22:51:33.985Z,8.07
2022-08-16T22:54:05.852Z,12.50
2022-08-16T22:56:48.942Z,11.48
2022-08-16T22:59:16.266Z,10.32
2022-08-16T23:01:44.149Z,9.18
2022-08-16T23:04:11.638Z,11.48
2022-08-16T23:06:38.923Z,12.00
2022-08-16T23:09:06.064Z,8.90
2022-08-16T23:11:33.286Z,9.57
2022-08-16T23:14:02.340Z,7.78
2022-08-16T23:16:33.311Z,9.38
2022-08-16T23:19:12.627Z,9.10
2022-08-16T23:21:42.892Z,8.98
2022-08-16T23:24:11.861Z,9.52
2022-08-16T23:26:45.731Z,9.32
2022-08-16T23:29:24.159Z,8.30
2022-08-16T23:31:56.504Z,10.07
2022-08-16T23:34:25.069Z,11.90
2022-08-16T23:36:52.744Z,12.10
2022-08-16T23:39:20.058Z,10.77
2022-08-16T23:41:47.292Z,13.30
2022-08-16T23:44:56.410Z,12.10
2022-08-16T23:47:02.260Z,8.23
2022-08-16T23:49:57.983Z,10.90
2022-08-16T23:52:19.249Z,8.75
2022-08-16T23:55:06.961Z,12.27
2022-08-16T23:57:34.138Z,9.15
